Time;durP1;ratioP1;P1;durP2;ratioP2;P2;SDS_P1;SDS_P2;PMS_P1;PMS_P2;Temp;Humidity;BMP_temperature;BMP_pressure;BME280_temperature;BME280_humidity;BME280_pressure;Samples;Min_cycle;Max_cycle;Signal;HPM_P1;HPM_P2
2021/05/11 00:00:25;;;;;;;1.30;0.77;;;;;;;5.13;100.00;98652.69;4971611;28;20049;-79
2021/05/11 00:03:29;;;;;;;1.05;1.05;;;;;;;5.10;100.00;98653.59;4969998;28;20088;-79
2021/05/11 00:06:32;;;;;;;0.70;0.70;;;;;;;5.06;100.00;98669.56;4976669;28;21171;-79
2021/05/11 00:09:36;;;;;;;1.05;1.05;;;;;;;5.15;100.00;98673.06;4971755;28;20052;-79
2021/05/11 00:12:40;;;;;;;0.60;0.60;;;;;;;5.12;100.00;98679.50;4970169;28;20045;-79
2021/05/11 00:15:44;;;;;;;0.93;0.93;;;;;;;5.07;100.00;98685.66;4967704;28;20045;-79
2021/05/11 00:18:48;;;;;;;0.68;0.68;;;;;;;5.04;100.00;98683.84;4969840;28;20045;-79
2021/05/11 00:21:52;;;;;;;18.65;1.17;;;;;;;5.00;100.00;98688.00;4969056;28;20057;-79
2021/05/11 00:24:56;;;;;;;9.48;1.73;;;;;;;4.91;100.00;98685.28;4968916;28;20302;-80
2021/05/11 00:27:59;;;;;;;0.70;0.70;;;;;;;4.82;100.00;98682.53;4969070;28;20057;-79
2021/05/11 00:31:03;;;;;;;0.88;0.88;;;;;;;4.73;100.00;98679.81;4970221;28;20108;-80
2021/05/11 00:34:06;;;;;;;8.10;1.10;;;;;;;4.65;100.00;98689.66;4954530;28;20061;-80
2021/05/11 00:37:10;;;;;;;0.95;0.95;;;;;;;4.57;100.00;98689.97;4955228;28;20041;-79
2021/05/11 00:40:13;;;;;;;1.65;1.33;;;;;;;4.51;100.00;98685.53;4967896;28;20053;-79
2021/05/11 00:43:17;;;;;;;0.75;0.75;;;;;;;4.48;100.00;98698.25;4950787;28;20053;-78
2021/05/11 00:46:21;;;;;;;0.85;0.85;;;;;;;4.43;100.00;98693.38;4949282;28;20069;-79
2021/05/11 00:49:29;;;;;;;1.60;1.52;;;;;;;4.38;100.00;98694.00;4951606;28;20053;-79
2021/05/11 00:52:33;;;;;;;0.68;0.68;;;;;;;4.39;100.00;98705.78;4960692;28;20041;-80
2021/05/11 00:55:38;;;;;;;1.50;1.40;;;;;;;4.36;100.00;98715.72;4969445;28;20081;-79
2021/05/11 00:58:42;;;;;;;0.55;0.55;;;;;;;4.26;100.00;98718.97;4969485;28;20049;-79
2021/05/11 01:01:46;;;;;;;0.77;0.73;;;;;;;4.19;100.00;98709.00;4969690;28;20061;-78
2021/05/11 01:04:49;;;;;;;8.95;1.17;;;;;;;4.15;100.00;98716.69;4969465;28;20890;-79
2021/05/11 01:07:53;;;;;;;0.85;0.85;;;;;;;4.05;100.00;98717.88;4969411;28;20041;-79
2021/05/11 01:10:57;;;;;;;1.00;1.00;;;;;;;3.98;100.00;98726.47;4966563;28;20179;-79
2021/05/11 01:14:00;;;;;;;4.38;1.00;;;;;;;3.91;100.00;98721.25;4964469;28;20065;-79
2021/05/11 01:17:04;;;;;;;2.47;0.90;;;;;;;3.84;100.00;98727.06;4964641;28;20766;-79
2021/05/11 01:20:15;;;;;;;1.02;1.02;;;;;;;3.72;100.00;98719.72;4971884;28;20050;-79
2021/05/11 01:26:30;;;;;;;11.40;1.38;;;;;;;3.62;100.00;98726.41;4992019;28;20053;-79
2021/05/11 01:29:46;;;;;;;1.75;1.13;;;;;;;3.57;100.00;98724.28;4991828;28;20820;-79
2021/05/11 01:50:14;;;;;;;7.85;2.67;;;;;;;3.53;100.00;98712.66;5009861;28;19921;-79
2021/05/11 01:52:58;;;;;;;1.00;1.00;;;;;;;3.51;100.00;98723.34;5010847;28;20064;-79
2021/05/11 02:22:47;;;;;;;0.90;0.90;;;;;;;3.58;100.00;98725.78;4990709;28;20061;-79
2021/05/11 02:25:50;;;;;;;1.30;1.20;;;;;;;3.55;100.00;98732.22;4999607;28;20058;-80
2021/05/11 02:28:54;;;;;;;0.63;0.63;;;;;;;3.51;100.00;98731.59;4991050;28;20049;-80
2021/05/11 02:31:57;;;;;;;1.23;1.23;;;;;;;3.47;100.00;98736.47;4991144;28;20053;-80
2021/05/11 02:35:01;;;;;;;1.10;1.10;;;;;;;3.38;100.00;98739.97;4991055;28;20058;-79
2021/05/11 02:38:04;;;;;;;1.52;1.42;;;;;;;3.34;100.00;98744.06;4990840;28;20416;-80
2021/05/11 02:41:08;;;;;;;1.27;1.20;;;;;;;3.32;100.00;98749.25;4990688;28;20061;-79
2021/05/11 02:44:14;;;;;;;1.52;1.00;;;;;;;3.30;100.00;98748.94;4994335;28;20069;-80
2021/05/11 02:47:17;;;;;;;1.55;1.52;;;;;;;3.28;100.00;98746.66;5005072;28;20049;-79
2021/05/11 02:50:24;;;;;;;0.32;0.32;;;;;;;3.29;100.00;98742.66;4996850;28;20077;-79
2021/05/11 02:53:28;;;;;;;0.77;0.77;;;;;;;3.30;100.00;98743.44;5010655;28;20061;-80
2021/05/11 02:56:31;;;;;;;1.27;1.27;;;;;;;3.27;100.00;98745.13;5010501;28;20057;-79
2021/05/11 02:59:35;;;;;;;1.55;1.30;;;;;;;3.29;100.00;98741.94;5010631;28;20057;-79
2021/05/11 03:02:39;;;;;;;0.85;0.80;;;;;;;3.27;100.00;98747.13;5010417;28;20498;-80
2021/05/11 03:05:42;;;;;;;1.13;1.00;;;;;;;3.25;100.00;98742.06;5010478;28;20072;-79
2021/05/11 03:08:46;;;;;;;0.80;0.80;;;;;;;3.29;100.00;98747.44;5014020;28;20086;-79
2021/05/11 03:11:50;;;;;;;1.17;1.10;;;;;;;3.30;100.00;98744.22;5013900;28;20053;-79
2021/05/11 03:14:53;;;;;;;0.82;0.82;;;;;;;3.33;100.00;98743.31;5013754;28;20057;-80
2021/05/11 03:17:56;;;;;;;1.02;1.02;;;;;;;3.30;100.00;98748.94;5013793;28;20057;-80
2021/05/11 03:21:00;;;;;;;5.47;1.52;;;;;;;3.27;100.00;98755.38;5013668;28;20627;-80
2021/05/11 03:24:04;;;;;;;3.22;1.35;;;;;;;3.27;100.00;98763.63;5002895;28;20053;-80
2021/05/11 03:27:07;;;;;;;1.38;1.08;;;;;;;3.22;100.00;98759.47;4993987;28;20066;-80
2021/05/11 03:30:11;;;;;;;3.58;1.00;;;;;;;3.19;100.00;98759.59;4995441;28;20061;-80
2021/05/11 03:33:15;;;;;;;0.70;0.70;;;;;;;3.16;100.00;98764.03;5002250;28;20061;-80
2021/05/11 03:36:19;;;;;;;1.25;1.25;;;;;;;3.20;100.00;98769.41;4993288;28;20065;-79
2021/05/11 03:39:22;;;;;;;1.35;1.35;;;;;;;3.27;100.00;98755.38;4993546;28;20061;-79
2021/05/11 03:42:36;;;;;;;9.48;1.67;;;;;;;3.38;100.00;98766.72;4993604;28;20057;-80
2021/05/11 03:45:47;;;;;;;1.05;1.05;;;;;;;3.44;100.00;98760.19;4995026;28;20519;-80
2021/05/11 03:48:51;;;;;;;6.35;1.15;;;;;;;3.51;100.00;98759.13;5005121;28;20424;-80
2021/05/11 03:51:54;;;;;;;1.13;1.13;;;;;;;3.60;100.00;98764.63;5013154;28;20053;-80
2021/05/11 03:54:57;;;;;;;1.48;1.38;;;;;;;3.72;100.00;98763.75;5012197;28;20056;-80
2021/05/11 03:58:01;;;;;;;3.60;1.42;;;;;;;3.85;100.00;98761.66;5012971;28;20423;-80
2021/05/11 04:01:05;;;;;;;2.38;1.88;;;;;;;3.92;100.00;98760.59;5013000;28;20057;-80
2021/05/11 04:04:08;;;;;;;1.30;1.08;;;;;;;4.00;100.00;98767.31;5012736;28;20049;-80
2021/05/11 04:07:13;;;;;;;3.20;1.15;;;;;;;4.07;100.00;98756.75;5012805;28;20061;-79
2021/05/11 04:13:39;;;;;;;1.27;1.17;;;;;;;4.20;100.00;98764.88;4992978;28;20066;-80
2021/05/11 04:16:43;;;;;;;5.35;1.63;;;;;;;4.30;100.00;98772.69;4993141;28;20057;-80
2021/05/11 04:19:47;;;;;;;7.13;1.67;;;;;;;4.42;100.00;98780.03;4993098;28;20053;-80
2021/05/11 04:22:50;;;;;;;10.05;1.48;;;;;;;4.50;100.00;98772.97;4993875;28;20053;-80
2021/05/11 04:25:54;;;;;;;2.17;1.65;;;;;;;4.54;100.00;98778.34;4993424;28;20057;-80
2021/05/11 04:28:57;;;;;;;1.42;1.33;;;;;;;4.53;100.00;98777.56;4992565;28;20057;-80
2021/05/11 04:32:01;;;;;;;3.22;1.48;;;;;;;4.55;100.00;98779.88;4991911;28;20057;-80
2021/05/11 04:35:05;;;;;;;1.80;1.33;;;;;;;4.61;100.00;98778.78;4992811;28;20126;-79
2021/05/11 04:38:08;;;;;;;3.55;1.70;;;;;;;4.71;100.00;98782.31;4992724;28;20057;-80
2021/05/11 04:41:12;;;;;;;1.17;1.05;;;;;;;4.84;100.00;98790.41;4992279;28;20057;-80
2021/05/11 04:44:17;;;;;;;5.10;1.80;;;;;;;4.98;100.00;98790.53;4998497;28;20409;-79
2021/05/11 04:47:28;;;;;;;5.70;1.70;;;;;;;5.10;100.00;98792.34;4991765;28;20065;-79
2021/05/11 04:50:31;;;;;;;4.72;1.38;;;;;;;5.24;100.00;98788.16;4992562;28;20049;-80
2021/05/11 04:53:35;;;;;;;3.60;1.52;;;;;;;5.44;100.00;98796.66;4992473;28;20456;-79
2021/05/11 04:56:38;;;;;;;5.72;2.50;;;;;;;5.55;100.00;98788.63;4997392;28;20057;-79
2021/05/11 04:59:42;;;;;;;3.20;1.98;;;;;;;5.67;100.00;98795.97;5009968;28;20060;-80
2021/05/11 05:02:47;;;;;;;1.55;1.52;;;;;;;5.78;100.00;98801.72;5011603;28;20057;-80
2021/05/11 05:05:51;;;;;;;7.63;1.98;;;;;;;5.90;100.00;98802.75;5011627;28;20126;-79
2021/05/11 05:08:54;;;;;;;7.50;1.67;;;;;;;6.02;100.00;98805.28;5011350;28;20053;-78
2021/05/11 05:11:57;;;;;;;3.45;0.98;;;;;;;6.14;100.00;98806.28;5011270;28;20048;-79
2021/05/11 05:15:01;;;;;;;10.18;2.05;;;;;;;6.22;100.00;98810.22;5011503;28;20056;-79
2021/05/11 05:18:04;;;;;;;4.47;1.92;;;;;;;6.35;100.00;98821.81;5002119;28;20065;-79
2021/05/11 05:21:09;;;;;;;22.58;2.25;;;;;;;6.46;100.00;98807.44;5011495;28;20065;-77
2021/05/11 05:24:14;;;;;;;10.52;2.47;;;;;;;6.55;100.00;98810.13;5011556;28;20531;-78
2021/05/11 05:27:37;;;;;;;2.15;1.58;;;;;;;6.65;100.00;98809.56;5003087;28;20062;-78
2021/05/11 05:30:41;;;;;;;13.23;3.00;;;;;;;6.71;100.00;98807.69;4990552;28;20062;-77
2021/05/11 05:33:45;;;;;;;1.30;1.10;;;;;;;6.80;100.00;98817.91;4991591;28;20111;-78
2021/05/11 05:36:48;;;;;;;6.90;1.85;;;;;;;6.85;100.00;98818.00;4991423;28;20058;-77
2021/05/11 05:39:56;;;;;;;6.90;2.38;;;;;;;6.91;100.00;98822.91;4985830;28;20064;-78
2021/05/11 05:42:59;;;;;;;4.28;1.80;;;;;;;7.00;100.00;98829.09;5011070;28;20416;-78
2021/05/11 05:46:03;;;;;;;10.60;2.45;;;;;;;7.02;100.00;98834.91;5012256;28;20391;-78
2021/05/11 05:49:08;;;;;;;4.22;1.92;;;;;;;7.09;100.00;98839.31;4993405;28;20104;-78
2021/05/11 05:52:19;;;;;;;8.15;2.75;;;;;;;7.08;100.00;98833.00;4991780;28;20424;-78
2021/05/11 05:55:22;;;;;;;6.30;2.63;;;;;;;7.13;100.00;98837.88;4990831;28;20049;-77
2021/05/11 05:58:26;;;;;;;3.15;1.67;;;;;;;7.18;100.00;98842.00;4991504;28;20057;-78
2021/05/11 06:01:30;;;;;;;7.45;2.30;;;;;;;7.22;100.00;98854.41;4991383;28;20061;-78
2021/05/11 06:04:33;;;;;;;2.30;1.63;;;;;;;7.32;100.00;98847.53;4991252;28;20425;-77
2021/05/11 06:07:38;;;;;;;6.43;2.13;;;;;;;7.42;100.00;98862.81;5001768;28;20077;-77
2021/05/11 06:10:41;;;;;;;7.55;1.42;;;;;;;7.43;100.00;98858.03;4996348;28;20065;-78
2021/05/11 06:17:16;;;;;;;1.83;1.20;;;;;;;7.47;100.00;98873.22;4991198;28;20057;-78
2021/05/11 06:20:19;;;;;;;11.35;2.15;;;;;;;7.51;100.00;98870.25;4990400;28;20413;-78
2021/05/11 06:23:23;;;;;;;13.07;2.75;;;;;;;7.55;100.00;98874.38;4991228;28;20114;-77
2021/05/11 06:26:26;;;;;;;2.47;1.58;;;;;;;7.55;100.00;98881.91;4990748;28;20049;-80
2021/05/11 06:29:31;;;;;;;3.25;1.90;;;;;;;7.58;100.00;98880.94;4990908;28;20062;-79
2021/05/11 06:32:34;;;;;;;4.72;1.83;;;;;;;7.67;100.00;98888.41;4991493;28;20408;-78
2021/05/11 06:35:38;;;;;;;3.83;1.98;;;;;;;7.78;100.00;98900.41;4991154;28;20122;-77
2021/05/11 06:38:41;;;;;;;8.98;2.10;;;;;;;7.82;100.00;98903.75;4991017;28;20062;-78
2021/05/11 06:41:49;;;;;;;11.43;1.67;;;;;;;7.85;100.00;98900.03;4993219;28;20084;-78
2021/05/11 06:45:06;;;;;;;6.85;2.50;;;;;;;7.99;100.00;98901.25;5000970;28;20535;-79
2021/05/11 06:54:19;;;;;;;1.98;1.13;;;;;;;8.59;100.00;98917.25;5021683;28;20049;-78
2021/05/11 06:57:22;;;;;;;2.28;0.95;;;;;;;8.69;100.00;98911.09;5016837;28;20038;-78
2021/05/11 07:00:26;;;;;;;8.40;2.08;;;;;;;8.77;100.00;98917.75;4994343;28;20057;-78
2021/05/11 07:03:29;;;;;;;2.30;1.00;;;;;;;8.76;100.00;98919.00;4993776;28;20054;-78
2021/05/11 07:06:35;;;;;;;5.22;1.60;;;;;;;8.84;100.00;98917.34;5009578;28;20083;-78
2021/05/11 07:16:11;;;;;;;10.00;1.58;;;;;;;8.98;100.00;98930.38;5013703;28;20053;-78
2021/05/11 07:19:15;;;;;;;1.40;0.77;;;;;;;9.13;100.00;98933.84;5013758;28;20053;-78
2021/05/11 07:22:18;;;;;;;2.45;0.38;;;;;;;9.18;100.00;98931.63;5012920;28;20527;-78
2021/05/11 07:25:24;;;;;;;1.17;0.88;;;;;;;9.20;100.00;98937.44;5014343;28;20065;-77
2021/05/11 07:28:41;;;;;;;4.47;0.60;;;;;;;9.23;100.00;98931.66;5013692;28;20125;-77
2021/05/11 07:31:45;;;;;;;6.70;0.65;;;;;;;9.34;100.00;98931.00;5013318;28;20403;-78
2021/05/11 07:34:52;;;;;;;3.60;0.90;;;;;;;9.69;100.00;98935.16;5013249;28;20053;-78
2021/05/11 07:37:55;;;;;;;7.38;0.75;;;;;;;9.76;100.00;98931.19;5013238;28;20053;-77
2021/05/11 07:40:59;;;;;;;5.97;0.75;;;;;;;9.80;100.00;98923.38;5020960;28;20404;-78
2021/05/11 07:44:03;;;;;;;3.25;0.75;;;;;;;9.96;100.00;98925.53;5012596;28;20061;-77
2021/05/11 07:47:26;;;;;;;0.95;0.50;;;;;;;10.12;100.00;98932.50;4993459;28;20073;-77
2021/05/11 08:16:58;;;;;;;4.43;0.63;;;;;;;11.02;100.00;98924.16;5012407;28;20057;-76
2021/05/11 08:20:13;;;;;;;2.63;1.10;;;;;;;11.13;100.00;98924.94;5011542;28;20046;-75
2021/05/11 08:30:03;;;;;;;1.45;0.60;;;;;;;11.47;100.00;98925.03;5006663;28;20417;-74
2021/05/11 08:33:07;;;;;;;9.02;1.08;;;;;;;11.63;100.00;98922.25;5012353;28;20519;-74
2021/05/11 08:36:11;;;;;;;8.15;0.70;;;;;;;11.76;100.00;98928.13;5011581;28;20077;-74
2021/05/11 08:39:15;;;;;;;1.65;0.98;;;;;;;12.08;100.00;98926.63;5011545;28;20056;-75
2021/05/11 08:42:18;;;;;;;3.85;0.85;;;;;;;12.50;100.00;98922.00;5007874;28;20065;-76
2021/05/11 08:45:22;;;;;;;6.25;0.85;;;;;;;12.62;100.00;98926.28;5007849;28;20057;-74
2021/05/11 08:48:26;;;;;;;4.40;0.40;;;;;;;12.63;100.00;98922.97;5011506;28;20507;-74
2021/05/11 08:51:33;;;;;;;6.22;0.40;;;;;;;12.31;100.00;98918.22;5011708;28;20053;-74
2021/05/11 09:25:34;;;;;;;5.85;1.08;;;;;;;12.92;100.00;98911.22;4991005;28;20054;-76
2021/05/11 09:28:49;;;;;;;2.40;0.93;;;;;;;13.18;100.00;98907.28;4991203;28;20069;-76
2021/05/11 09:32:04;;;;;;;7.32;0.40;;;;;;;13.02;100.00;98908.88;4991549;28;20057;-76
2021/05/11 09:45:05;;;;;;;4.30;1.30;;;;;;;12.89;100.00;98900.28;4991559;28;20077;-76
2021/05/11 10:31:23;;;;;;;7.10;0.38;;;;;;;14.37;100.00;98878.16;4977550;28;20633;-76
2021/05/11 10:41:20;;;;;;;1.65;0.47;;;;;;;14.12;100.00;98884.25;5014133;28;20060;-75
2021/05/11 10:46:24;;;;;;;6.05;0.45;;;;;;;13.89;100.00;98882.91;5012702;28;20585;-76
2021/05/11 10:48:35;;;;;;;3.85;0.45;;;;;;;14.06;100.00;98880.72;5009062;28;20053;-76
2021/05/11 10:51:42;;;;;;;0.20;0.10;;;;;;;14.53;100.00;98884.09;5014122;28;20519;-76
2021/05/11 10:54:58;;;;;;;2.25;0.20;;;;;;;14.86;100.00;98873.25;5004872;28;20065;-76
2021/05/11 10:58:06;;;;;;;2.15;0.20;;;;;;;14.84;100.00;98877.88;4994546;28;20054;-76
2021/05/11 11:01:33;;;;;;;0.55;0.20;;;;;;;14.84;100.00;98867.41;4994270;28;20054;-76
2021/05/11 11:04:46;;;;;;;0.88;0.43;;;;;;;14.55;100.00;98870.31;4993880;28;20057;-76
2021/05/11 11:07:50;;;;;;;0.85;0.25;;;;;;;14.79;100.00;98881.50;4994524;28;20065;-76
2021/05/11 11:11:17;;;;;;;3.50;0.25;;;;;;;14.89;100.00;98863.78;5012292;28;20061;-76
2021/05/11 11:14:21;;;;;;;6.22;0.40;;;;;;;14.93;100.00;98867.06;5023675;28;20053;-75
2021/05/11 11:17:25;;;;;;;2.83;0.43;;;;;;;14.80;100.00;98864.16;5013277;28;20420;-76
2021/05/11 11:20:33;;;;;;;8.98;0.20;;;;;;;14.94;100.00;98865.00;5013898;28;20057;-77
2021/05/11 11:23:55;;;;;;;0.38;0.22;;;;;;;14.96;100.00;98860.41;5014316;28;20413;-75
2021/05/11 11:26:59;;;;;;;0.10;0.10;;;;;;;14.80;100.00;98872.56;5012192;28;20061;-75
2021/05/11 11:30:07;;;;;;;1.15;0.50;;;;;;;14.68;100.00;98862.78;5001721;28;20062;-75
2021/05/11 11:33:10;;;;;;;0.10;0.00;;;;;;;14.70;100.00;98860.22;5013024;28;20049;-74
2021/05/11 11:36:31;;;;;;;0.95;0.47;;;;;;;14.31;100.00;98863.44;5012556;28;20766;-73
2021/05/11 11:39:36;;;;;;;;;;;;;;;13.99;100.00;98878.50;5012411;28;20053;-74
2021/05/11 11:42:42;;;;;;;1.17;0.08;;;;;;;13.76;100.00;98871.56;5013079;28;19918;-73
2021/05/11 11:45:45;;;;;;;0.10;0.10;;;;;;;13.35;100.00;98875.16;5013280;28;20057;-76
2021/05/11 11:48:57;;;;;;;0.20;0.20;;;;;;;12.87;100.00;98872.84;5012687;28;20057;-75
2021/05/11 11:55:36;;;;;;;2.53;0.32;;;;;;;11.94;100.00;98873.88;5012486;28;20417;-75
2021/05/11 11:58:40;;;;;;;0.73;0.40;;;;;;;11.50;100.00;98885.75;5008578;28;20057;-75
2021/05/11 12:01:57;;;;;;;1.88;0.45;;;;;;;10.96;100.00;98892.75;5006383;28;20053;-76
2021/05/11 12:05:13;;;;;;;1.42;0.68;;;;;;;10.44;100.00;98898.56;5005905;28;20065;-77
2021/05/11 12:08:24;;;;;;;6.13;1.23;;;;;;;10.08;100.00;98899.31;4991645;28;20611;-77
2021/05/11 12:11:28;;;;;;;0.63;0.52;;;;;;;9.89;100.00;98914.88;4995072;28;20058;-77
2021/05/11 12:14:37;;;;;;;16.10;1.83;;;;;;;9.78;100.00;98914.78;5004191;28;20065;-77
2021/05/11 12:17:45;;;;;;;3.92;0.80;;;;;;;9.72;100.00;98916.75;5011856;28;20060;-78
2021/05/11 12:20:59;;;;;;;0.98;0.47;;;;;;;9.74;100.00;98919.78;5010701;28;20057;-79
2021/05/11 12:24:05;;;;;;;1.20;1.08;;;;;;;9.69;100.00;98926.06;5012314;28;20060;-78
2021/05/11 12:27:10;;;;;;;3.67;0.95;;;;;;;9.53;100.00;98929.47;5011998;28;20077;-78
2021/05/11 12:30:13;;;;;;;3.30;0.77;;;;;;;9.36;100.00;98904.28;5013859;28;20053;-80
2021/05/11 12:33:17;;;;;;;1.08;0.40;;;;;;;9.20;100.00;98909.66;5008874;28;20049;-81
2021/05/11 12:36:28;;;;;;;3.15;0.77;;;;;;;9.09;100.00;98902.75;5011739;28;20427;-80
2021/05/11 12:42:45;;;;;;;0.30;0.25;;;;;;;8.99;100.00;98901.34;5015131;28;20060;-78
2021/05/11 12:45:51;;;;;;;0.20;0.20;;;;;;;8.95;100.00;98909.13;5026979;28;20065;-78
2021/05/11 12:49:03;;;;;;;0.20;0.20;;;;;;;8.96;100.00;98907.91;5011545;28;20048;-80
2021/05/11 12:52:09;;;;;;;0.40;0.40;;;;;;;9.00;100.00;98916.00;4998297;28;20411;-77
2021/05/11 12:55:32;;;;;;;0.45;0.35;;;;;;;9.04;100.00;98914.56;5037540;28;20056;-81
2021/05/11 13:02:05;;;;;;;5.35;0.40;;;;;;;9.00;100.00;98927.13;5011710;28;20057;-81
2021/05/11 13:28:56;;;;;;;4.13;0.73;;;;;;;9.41;100.00;98902.81;5011211;28;20064;-79
2021/05/11 13:32:03;;;;;;;0.45;0.38;;;;;;;9.70;100.00;98885.91;5010811;28;20447;-79
2021/05/11 13:35:07;;;;;;;2.17;0.15;;;;;;;10.12;100.00;98883.19;5010775;28;20056;-79
2021/05/11 13:38:10;;;;;;;3.03;0.80;;;;;;;10.39;100.00;98885.41;5009620;28;20053;-81
2021/05/11 13:41:14;;;;;;;0.30;0.25;;;;;;;10.69;100.00;98877.44;5010867;28;20056;-79
2021/05/11 13:44:18;;;;;;;0.20;0.20;;;;;;;10.97;100.00;98871.97;5011107;28;20053;-80
2021/05/11 13:47:22;;;;;;;1.38;0.68;;;;;;;11.17;100.00;98874.56;5010818;28;20069;-79
2021/05/11 13:51:15;;;;;;;0.70;0.60;;;;;;;11.27;100.00;98862.66;5010213;28;20068;-80
2021/05/11 13:53:54;;;;;;;1.33;0.30;;;;;;;11.33;100.00;98857.84;5010621;28;20057;-80
2021/05/11 14:01:31;;;;;;;1.20;0.40;;;;;;;11.37;100.00;98852.03;5009472;28;20538;-80
2021/05/11 14:03:50;;;;;;;0.17;0.17;;;;;;;11.95;100.00;98839.88;5010664;28;20053;-81
2021/05/11 14:06:53;;;;;;;0.10;0.10;;;;;;;12.28;100.00;98835.50;5009660;28;20053;-80
2021/05/11 14:09:57;;;;;;;1.05;0.70;;;;;;;12.44;100.00;98826.31;5010733;28;20061;-80
2021/05/11 14:13:00;;;;;;;0.20;0.20;;;;;;;12.34;100.00;98822.28;5010684;28;20061;-82
2021/05/11 14:16:05;;;;;;;0.25;0.10;;;;;;;12.36;100.00;98823.31;5010596;28;20057;-78
2021/05/11 14:19:08;;;;;;;0.50;0.30;;;;;;;12.20;100.00;98818.53;5010587;28;20061;-81
2021/05/11 14:22:13;;;;;;;0.10;0.10;;;;;;;11.99;100.00;98818.06;5010587;28;20423;-81
2021/05/11 14:25:16;;;;;;;0.10;0.10;;;;;;;11.87;100.00;98819.34;5010455;28;20061;-80
2021/05/11 14:28:20;;;;;;;0.10;0.10;;;;;;;12.27;100.00;98817.22;5020640;28;20113;-80
2021/05/11 14:31:25;;;;;;;0.10;0.10;;;;;;;12.41;100.00;98821.78;5010431;28;20057;-81
2021/05/11 14:34:28;;;;;;;0.40;0.10;;;;;;;12.59;100.00;98815.59;5009472;28;20415;-81
2021/05/11 14:37:32;;;;;;;0.10;0.10;;;;;;;12.87;100.00;98810.63;5009791;28;20056;-81
2021/05/11 14:40:36;;;;;;;2.63;0.20;;;;;;;12.87;100.00;98808.59;5010056;28;20061;-80
2021/05/11 14:43:41;;;;;;;0.50;0.10;;;;;;;12.76;100.00;98805.09;5010399;28;20053;-80
2021/05/11 14:46:44;;;;;;;0.95;0.25;;;;;;;12.83;100.00;98798.97;5010109;28;20574;-80
2021/05/11 14:49:47;;;;;;;0.10;0.00;;;;;;;13.27;100.00;98801.50;5010383;28;20057;-79
2021/05/11 14:52:54;;;;;;;0.10;0.00;;;;;;;13.55;100.00;98798.50;5009846;28;20056;-80
2021/05/11 14:55:59;;;;;;;0.20;0.10;;;;;;;13.73;100.00;98811.06;5010139;28;20057;-79
2021/05/11 14:59:02;;;;;;;0.10;0.10;;;;;;;13.66;100.00;98806.78;5008668;28;20057;-79
2021/05/11 15:02:06;;;;;;;0.10;0.10;;;;;;;13.65;100.00;98811.63;5011830;28;20056;-80
2021/05/11 15:05:11;;;;;;;0.38;0.17;;;;;;;13.48;100.00;98816.59;5013803;28;20060;-80
2021/05/11 15:08:14;;;;;;;1.38;0.40;;;;;;;13.27;100.00;98823.88;5013673;28;20061;-80
2021/05/11 15:11:17;;;;;;;0.10;0.00;;;;;;;13.05;100.00;98818.44;5012823;28;20053;-80
2021/05/11 15:14:21;;;;;;;0.30;0.10;;;;;;;12.78;100.00;98817.28;5012677;28;20053;-80
2021/05/11 15:20:29;;;;;;;0.10;0.10;;;;;;;12.50;100.00;98827.81;5011671;28;20061;-80
2021/05/11 15:23:33;;;;;;;1.02;0.10;;;;;;;12.49;100.00;98817.94;5013332;28;20061;-80
2021/05/11 15:26:36;;;;;;;0.25;0.08;;;;;;;12.54;100.00;98810.81;5013146;28;20068;-78
2021/05/11 15:29:40;;;;;;;0.30;0.05;;;;;;;12.47;100.00;98797.38;5013321;28;20061;-77
2021/05/11 15:32:49;;;;;;;0.10;0.10;;;;;;;12.30;100.00;98796.69;5013094;28;20519;-79
2021/05/11 15:35:53;;;;;;;1.85;0.20;;;;;;;12.03;100.00;98799.03;5011548;28;20056;-79
2021/05/11 15:38:57;;;;;;;0.10;0.10;;;;;;;11.84;100.00;98792.47;5013009;28;20060;-79
2021/05/11 15:42:00;;;;;;;0.10;0.10;;;;;;;11.70;100.00;98792.75;5012911;28;20057;-80
2021/05/11 15:45:05;;;;;;;0.10;0.10;;;;;;;11.56;100.00;98794.50;5011719;28;20053;-78
2021/05/11 15:48:09;;;;;;;0.20;0.10;;;;;;;11.43;100.00;98791.47;5011863;28;20065;-80
2021/05/11 15:51:13;;;;;;;3.20;1.13;;;;;;;11.28;100.00;98804.91;5022924;28;20057;-79
2021/05/11 15:54:17;;;;;;;2.03;0.10;;;;;;;11.12;100.00;98823.13;5012370;28;20544;-79
2021/05/11 15:57:20;;;;;;;0.17;0.17;;;;;;;10.95;100.00;98835.50;5011835;28;20049;-77
2021/05/11 16:00:24;;;;;;;1.85;0.30;;;;;;;10.72;100.00;98840.22;5011974;28;20588;-80
2021/05/11 16:03:27;;;;;;;0.28;0.28;;;;;;;10.49;100.00;98838.63;5012499;28;20049;-79
2021/05/11 16:06:31;;;;;;;0.52;0.45;;;;;;;10.22;100.00;98842.03;5011013;28;20069;-78
2021/05/11 16:09:34;;;;;;;2.72;0.30;;;;;;;10.06;100.00;98857.34;5011471;28;20053;-82
2021/05/11 16:12:38;;;;;;;0.75;0.30;;;;;;;9.93;100.00;98890.38;5011599;28;20069;-80
2021/05/11 16:15:41;;;;;;;1.60;0.52;;;;;;;9.70;100.00;98885.91;5012249;28;20411;-78
2021/05/11 16:18:45;;;;;;;2.38;0.90;;;;;;;9.38;100.00;98859.31;5012272;28;20424;-80
2021/05/11 16:21:48;;;;;;;0.90;0.40;;;;;;;9.08;100.00;98840.09;5001561;28;20423;-81
2021/05/11 16:24:52;;;;;;;1.58;0.70;;;;;;;8.90;100.00;98859.84;4992543;28;20065;-85
2021/05/11 16:27:56;;;;;;;2.28;0.50;;;;;;;8.77;100.00;98872.59;4991942;28;20053;-80
2021/05/11 16:30:59;;;;;;;2.47;0.45;;;;;;;8.59;100.00;98861.75;4999459;28;20056;-82
2021/05/11 16:34:04;;;;;;;2.70;0.50;;;;;;;8.41;100.00;98857.25;5012459;28;20531;-81
2021/05/11 16:37:08;;;;;;;4.28;0.63;;;;;;;8.25;100.00;98855.00;5012322;28;20061;-80
2021/05/11 16:40:13;;;;;;;2.40;0.57;;;;;;;8.12;100.00;98858.09;5011936;28;20531;-83
2021/05/11 16:43:19;;;;;;;2.08;0.40;;;;;;;8.03;100.00;98844.38;5012087;28;20053;-81
2021/05/11 16:46:23;;;;;;;0.63;0.55;;;;;;;7.93;100.00;98865.13;5022957;28;20053;-78
2021/05/11 16:49:27;;;;;;;2.35;0.63;;;;;;;7.88;100.00;98840.09;5011891;28;20523;-79
2021/05/11 16:52:30;;;;;;;0.30;0.30;;;;;;;7.87;100.00;98819.16;5011881;28;20053;-80
2021/05/11 16:55:34;;;;;;;0.30;0.30;;;;;;;7.85;100.00;98818.88;5011829;28;20086;-77
2021/05/11 16:58:37;;;;;;;0.77;0.60;;;;;;;7.80;100.00;98825.09;5011829;28;20064;-78
2021/05/11 17:01:41;;;;;;;5.93;0.60;;;;;;;7.76;100.00;98819.00;5011643;28;20066;-80
2021/05/11 17:04:45;;;;;;;1.55;0.70;;;;;;;7.78;100.00;98824.81;5011357;28;20064;-78
2021/05/11 17:07:49;;;;;;;0.47;0.47;;;;;;;7.91;100.00;98819.72;5011393;28;20057;-78
2021/05/11 17:10:53;;;;;;;0.30;0.30;;;;;;;8.18;100.00;98813.81;5010710;28;20052;-78
2021/05/11 17:13:57;;;;;;;0.55;0.55;;;;;;;8.58;100.00;98799.19;5010999;28;20057;-79
2021/05/11 17:17:00;;;;;;;4.78;0.95;;;;;;;8.77;100.00;98784.50;5011449;28;20056;-79
2021/05/11 17:20:04;;;;;;;4.88;1.08;;;;;;;8.81;100.00;98782.31;5011933;28;20543;-78
2021/05/11 17:23:07;;;;;;;0.52;0.32;;;;;;;8.76;100.00;98788.53;5009941;28;20060;-81
2021/05/11 17:26:12;;;;;;;3.22;0.50;;;;;;;8.69;100.00;98794.53;5006493;28;20147;-81
2021/05/11 17:29:18;;;;;;;1.38;0.55;;;;;;;8.60;100.00;98796.69;5011074;28;20531;-90
2021/05/11 17:32:21;;;;;;;2.53;0.98;;;;;;;8.56;100.00;98794.13;5010215;28;20451;-80
2021/05/11 17:35:25;;;;;;;1.67;0.47;;;;;;;8.44;100.00;98784.16;5010094;28;20073;-82
2021/05/11 17:38:36;;;;;;;4.35;2.00;;;;;;;8.36;100.00;98780.25;5011746;28;20057;-82
2021/05/11 17:41:39;;;;;;;5.55;1.80;;;;;;;8.31;100.00;98780.97;5011990;28;20057;-84
2021/05/11 17:44:44;;;;;;;1.40;0.73;;;;;;;8.30;100.00;98784.97;5012756;28;20052;-79
2021/05/11 17:47:51;;;;;;;2.28;1.17;;;;;;;8.29;100.00;98784.22;5011836;28;20534;-78
2021/05/11 17:50:55;;;;;;;1.83;0.68;;;;;;;8.28;100.00;98781.94;5010060;28;20065;-78
2021/05/11 17:53:59;;;;;;;0.52;0.30;;;;;;;8.24;100.00;98781.34;4991522;28;20077;-79
2021/05/11 17:57:02;;;;;;;1.65;1.00;;;;;;;8.22;100.00;98790.16;5009070;28;20061;-78
2021/05/11 18:00:07;;;;;;;1.02;1.02;;;;;;;8.22;100.00;98781.09;5009634;28;20049;-78
2021/05/11 18:03:11;;;;;;;0.80;0.63;;;;;;;8.20;100.00;98791.91;5010877;28;20546;-77
2021/05/11 18:06:14;;;;;;;2.13;0.50;;;;;;;8.15;100.00;98790.59;5010868;28;20069;-79
2021/05/11 18:09:17;;;;;;;1.50;0.90;;;;;;;8.09;100.00;98791.75;5010153;28;20057;-77
2021/05/11 18:12:21;;;;;;;0.73;0.60;;;;;;;8.05;100.00;98796.75;5010742;28;20048;-79
2021/05/11 18:15:25;;;;;;;0.50;0.22;;;;;;;8.07;100.00;98800.56;5010661;28;20527;-78
2021/05/11 18:18:28;;;;;;;0.30;0.22;;;;;;;8.02;100.00;98797.69;5010571;28;20420;-78
2021/05/11 18:21:32;;;;;;;1.30;0.38;;;;;;;7.98;100.00;98802.69;5010758;28;20069;-77